Time;durP1;ratioP1;P1;durP2;ratioP2;P2;SDS_P1;SDS_P2;PMS_P1;PMS_P2;Temp;Humidity;BMP_temperature;BMP_pressure;BME280_temperature;BME280_humidity;BME280_pressure;Samples;Min_cycle;Max_cycle;Signal;HPM_P1;HPM_P2
2024/03/29 01:45:09;;;;;;;41.28;17.20;;;;;;;;;;6088398;29;20384;-60
2024/03/29 01:48:13;;;;;;;39.88;16.80;;;;;;;;;;6088871;29;20296;-60
2024/03/29 01:51:16;;;;;;;40.58;17.30;;;;;;;;;;6089595;29;20292;-60
2024/03/29 01:54:19;;;;;;;39.60;17.52;;;;;;;;;;6084506;29;20291;-62
2024/03/29 01:57:24;;;;;;;40.13;18.17;;;;;;;;;;6088969;29;20292;-60
2024/03/29 02:00:27;;;;;;;39.25;18.10;;;;;;;;;;6087957;29;20291;-61
2024/03/29 02:03:33;;;;;;;37.78;17.83;;;;;;;;;;6086822;29;20491;-59
2024/03/29 02:06:36;;;;;;;35.90;17.15;;;;;;;;;;6100190;29;20564;-60
2024/03/29 02:09:38;;;;;;;41.67;17.70;;;;;;;;;;6109657;29;20295;-59
2024/03/29 02:12:43;;;;;;;39.55;18.40;;;;;;;;;;6088370;29;20472;-59
2024/03/29 02:15:46;;;;;;;40.00;17.35;;;;;;;;;;6087364;29;20518;-60
2024/03/29 02:18:49;;;;;;;36.60;18.25;;;;;;;;;;6088310;29;20292;-60
2024/03/29 02:21:54;;;;;;;39.05;17.70;;;;;;;;;;6089406;29;20296;-61
2024/03/29 02:24:58;;;;;;;38.85;18.40;;;;;;;;;;6093024;29;20300;-60
2024/03/29 02:28:02;;;;;;;37.00;16.65;;;;;;;;;;6091006;29;20304;-60
2024/03/29 02:31:05;;;;;;;41.33;17.92;;;;;;;;;;6092242;29;20300;-60
2024/03/29 02:34:09;;;;;;;36.15;16.85;;;;;;;;;;6092791;29;20296;-59
2024/03/29 02:37:12;;;;;;;31.27;15.98;;;;;;;;;;6093253;29;20292;-59
2024/03/29 02:40:16;;;;;;;32.67;16.45;;;;;;;;;;6092451;29;20300;-59
2024/03/29 02:43:19;;;;;;;41.40;16.75;;;;;;;;;;6091265;29;20312;-60
2024/03/29 02:46:22;;;;;;;30.92;16.35;;;;;;;;;;6091424;29;20237;-60
2024/03/29 02:49:24;;;;;;;33.75;16.17;;;;;;;;;;6092455;29;20296;-59
2024/03/29 02:52:28;;;;;;;31.65;16.00;;;;;;;;;;6092711;29;20296;-60
2024/03/29 02:55:31;;;;;;;33.22;16.02;;;;;;;;;;6092037;29;20312;-59
2024/03/29 02:58:35;;;;;;;30.30;15.40;;;;;;;;;;6091745;29;20299;-60
2024/03/29 03:01:37;;;;;;;30.15;15.80;;;;;;;;;;6092799;29;20492;-59
2024/03/29 03:04:40;;;;;;;25.15;14.27;;;;;;;;;;6092614;29;20304;-60
2024/03/29 03:11:05;;;;;;;26.48;14.02;;;;;;;;;;6072321;29;20317;-61
2024/03/29 03:14:08;;;;;;;23.35;13.15;;;;;;;;;;6065769;29;20305;-60
2024/03/29 03:17:11;;;;;;;25.17;13.88;;;;;;;;;;6068739;29;20285;-60
2024/03/29 03:20:14;;;;;;;26.90;14.07;;;;;;;;;;6068354;29;20428;-60
2024/03/29 03:23:17;;;;;;;22.48;13.20;;;;;;;;;;6067198;29;20301;-60
2024/03/29 03:26:21;;;;;;;20.83;13.23;;;;;;;;;;6068258;29;20305;-60
2024/03/29 03:29:23;;;;;;;25.65;13.55;;;;;;;;;;6066387;29;20483;-61
2024/03/29 03:32:26;;;;;;;28.33;14.10;;;;;;;;;;6084263;29;20293;-60
2024/03/29 03:35:28;;;;;;;24.10;13.90;;;;;;;;;;6067103;29;20300;-60
2024/03/29 03:38:32;;;;;;;26.55;13.93;;;;;;;;;;6066933;29;20388;-60
2024/03/29 03:41:35;;;;;;;25.00;13.20;;;;;;;;;;6068396;29;20294;-60
2024/03/29 03:44:38;;;;;;;28.88;13.60;;;;;;;;;;6067768;29;20303;-60
2024/03/29 03:47:40;;;;;;;23.83;13.35;;;;;;;;;;6067736;29;20297;-60
2024/03/29 03:50:43;;;;;;;23.40;13.50;;;;;;;;;;6067799;29;20531;-60
2024/03/29 03:53:45;;;;;;;25.50;13.82;;;;;;;;;;6067818;29;20478;-61
2024/03/29 03:56:49;;;;;;;25.95;14.15;;;;;;;;;;6068731;29;20577;-59
2024/03/29 03:59:51;;;;;;;24.67;13.38;;;;;;;;;;6066834;29;20301;-60
2024/03/29 04:02:54;;;;;;;26.35;14.05;;;;;;;;;;6093611;29;20304;-61
2024/03/29 04:05:55;;;;;;;27.65;14.88;;;;;;;;;;6098599;29;20287;-62
2024/03/29 04:08:58;;;;;;;27.23;14.98;;;;;;;;;;6112712;29;20444;-60
2024/03/29 04:12:01;;;;;;;34.40;14.40;;;;;;;;;;6097159;29;20296;-60
2024/03/29 04:15:06;;;;;;;27.02;14.70;;;;;;;;;;6090277;29;20304;-60
2024/03/29 04:18:08;;;;;;;29.95;14.52;;;;;;;;;;6086449;29;20344;-60
2024/03/29 04:21:10;;;;;;;32.20;14.85;;;;;;;;;;6113175;29;20302;-60
2024/03/29 04:24:13;;;;;;;27.75;14.40;;;;;;;;;;6110603;28;20310;-60
2024/03/29 04:27:18;;;;;;;30.48;14.80;;;;;;;;;;6098731;29;20291;-61
2024/03/29 04:30:20;;;;;;;29.48;14.75;;;;;;;;;;6102989;29;20291;-60
2024/03/29 04:33:23;;;;;;;27.58;14.38;;;;;;;;;;6112220;29;20491;-61
2024/03/29 04:36:26;;;;;;;28.10;14.68;;;;;;;;;;6106215;29;20296;-60
2024/03/29 04:39:29;;;;;;;31.05;14.57;;;;;;;;;;6088914;29;20301;-64
2024/03/29 04:42:33;;;;;;;25.70;13.80;;;;;;;;;;6091140;29;20288;-61
2024/03/29 04:45:36;;;;;;;27.33;14.32;;;;;;;;;;6088463;29;20292;-61
2024/03/29 04:48:39;;;;;;;26.88;14.43;;;;;;;;;;6089534;29;20466;-60
2024/03/29 04:51:42;;;;;;;28.58;14.90;;;;;;;;;;6088347;29;20300;-60
2024/03/29 04:54:45;;;;;;;30.58;15.27;;;;;;;;;;6089465;29;20304;-61
2024/03/29 04:57:49;;;;;;;27.63;14.60;;;;;;;;;;6089520;29;20316;-60
2024/03/29 05:00:52;;;;;;;29.88;15.50;;;;;;;;;;6088513;29;20300;-60
2024/03/29 05:03:55;;;;;;;29.05;14.95;;;;;;;;;;6089346;29;20300;-61
2024/03/29 05:06:58;;;;;;;25.95;14.20;;;;;;;;;;6104567;29;20299;-60
2024/03/29 05:10:04;;;;;;;27.55;15.20;;;;;;;;;;6106776;29;20300;-60
2024/03/29 05:13:08;;;;;;;26.85;14.25;;;;;;;;;;6089346;29;20304;-60
2024/03/29 05:16:11;;;;;;;25.40;14.05;;;;;;;;;;6088850;29;20295;-60
2024/03/29 05:19:15;;;;;;;31.20;14.60;;;;;;;;;;6088819;29;20288;-59
2024/03/29 05:22:18;;;;;;;29.55;14.73;;;;;;;;;;6088132;29;20305;-61
2024/03/29 05:25:21;;;;;;;26.35;13.80;;;;;;;;;;6088668;29;20304;-61
2024/03/29 05:28:25;;;;;;;26.52;13.73;;;;;;;;;;6088245;29;20292;-60
2024/03/29 05:31:29;;;;;;;28.80;14.18;;;;;;;;;;6088439;29;20292;-59
2024/03/29 05:34:32;;;;;;;27.55;14.70;;;;;;;;;;6088279;29;20577;-60
2024/03/29 05:37:35;;;;;;;28.35;14.73;;;;;;;;;;6088398;29;20364;-61
2024/03/29 05:40:38;;;;;;;26.23;14.30;;;;;;;;;;6088143;29;20295;-61
2024/03/29 05:43:43;;;;;;;29.63;15.00;;;;;;;;;;6072661;29;20304;-61
2024/03/29 05:46:45;;;;;;;26.40;13.75;;;;;;;;;;6088820;29;20292;-60
2024/03/29 05:49:48;;;;;;;30.27;14.75;;;;;;;;;;6088197;29;20300;-60
2024/03/29 05:52:52;;;;;;;26.25;14.27;;;;;;;;;;6088531;29;20296;-60
2024/03/29 05:55:54;;;;;;;26.60;14.52;;;;;;;;;;6085882;29;20304;-60
2024/03/29 05:58:59;;;;;;;27.77;14.50;;;;;;;;;;6092243;29;20304;-60
2024/03/29 06:02:02;;;;;;;29.95;14.40;;;;;;;;;;6093470;29;20295;-59
2024/03/29 06:05:05;;;;;;;30.25;15.40;;;;;;;;;;6092907;29;20308;-60
2024/03/29 06:08:09;;;;;;;25.40;14.27;;;;;;;;;;6085266;29;20585;-61
2024/03/29 06:11:12;;;;;;;29.00;14.77;;;;;;;;;;6090546;29;20304;-61
2024/03/29 06:17:34;;;;;;;25.70;13.95;;;;;;;;;;6074701;29;20299;-61
2024/03/29 06:20:37;;;;;;;29.02;14.63;;;;;;;;;;6116548;29;20355;-61
2024/03/29 06:23:40;;;;;;;25.20;13.73;;;;;;;;;;6116584;29;20307;-59
2024/03/29 06:26:43;;;;;;;26.55;14.43;;;;;;;;;;6116198;29;20295;-60
2024/03/29 06:29:48;;;;;;;27.02;14.13;;;;;;;;;;6115802;29;20291;-60
2024/03/29 06:32:51;;;;;;;23.40;13.07;;;;;;;;;;6115867;28;20572;-59
2024/03/29 06:35:55;;;;;;;25.52;12.85;;;;;;;;;;6115518;29;20481;-59
2024/03/29 06:38:58;;;;;;;25.83;13.32;;;;;;;;;;6116008;28;20374;-61
2024/03/29 06:42:01;;;;;;;24.13;13.52;;;;;;;;;;6115783;29;20593;-60
2024/03/29 06:45:06;;;;;;;22.23;12.35;;;;;;;;;;6115652;29;20296;-60
2024/03/29 06:48:10;;;;;;;21.60;12.98;;;;;;;;;;6113693;29;20292;-60
2024/03/29 06:51:12;;;;;;;24.08;12.77;;;;;;;;;;6115015;29;20318;-60
2024/03/29 06:54:16;;;;;;;28.42;13.32;;;;;;;;;;6115092;29;20295;-60
2024/03/29 06:57:23;;;;;;;21.08;12.10;;;;;;;;;;6115566;29;20309;-63
2024/03/29 07:00:27;;;;;;;21.70;11.73;;;;;;;;;;6116179;29;20296;-60
2024/03/29 07:03:30;;;;;;;22.58;12.55;;;;;;;;;;6100471;29;20300;-61
2024/03/29 07:06:33;;;;;;;23.17;11.95;;;;;;;;;;6104766;29;20288;-63
2024/03/29 07:09:35;;;;;;;22.25;11.70;;;;;;;;;;6092143;29;20456;-61
2024/03/29 07:12:38;;;;;;;18.50;11.55;;;;;;;;;;6116183;29;20479;-61
2024/03/29 07:15:42;;;;;;;20.85;11.35;;;;;;;;;;6115618;29;20307;-61
2024/03/29 07:18:46;;;;;;;25.23;11.85;;;;;;;;;;6113062;29;20303;-59
2024/03/29 07:21:50;;;;;;;16.30;10.32;;;;;;;;;;6115571;29;20299;-60
2024/03/29 07:24:53;;;;;;;18.33;10.52;;;;;;;;;;6115082;29;20304;-60
2024/03/29 07:27:56;;;;;;;18.23;10.18;;;;;;;;;;6115106;29;20305;-60
2024/03/29 07:31:06;;;;;;;17.00;10.07;;;;;;;;;;6115101;29;20300;-61
2024/03/29 07:34:10;;;;;;;11.25;8.38;;;;;;;;;;6114959;29;20304;-61
2024/03/29 07:37:15;;;;;;;11.52;7.82;;;;;;;;;;6115195;29;20556;-60
2024/03/29 07:40:17;;;;;;;9.70;7.90;;;;;;;;;;6099231;29;20296;-61
2024/03/29 07:43:20;;;;;;;10.45;8.63;;;;;;;;;;6093812;29;20295;-59
2024/03/29 07:46:24;;;;;;;8.23;6.97;;;;;;;;;;6114488;29;20291;-60
2024/03/29 07:49:27;;;;;;;11.20;7.30;;;;;;;;;;6114157;29;20295;-60
2024/03/29 07:52:30;;;;;;;11.80;7.45;;;;;;;;;;6113722;29;20295;-60
2024/03/29 07:55:33;;;;;;;8.70;6.85;;;;;;;;;;6113500;29;20453;-60
2024/03/29 07:58:36;;;;;;;9.05;7.05;;;;;;;;;;6113864;29;20311;-60
2024/03/29 08:01:41;;;;;;;8.80;7.40;;;;;;;;;;6114569;29;20458;-61
2024/03/29 08:04:44;;;;;;;10.57;7.07;;;;;;;;;;6111463;29;20297;-60
2024/03/29 08:07:47;;;;;;;7.35;6.35;;;;;;;;;;6093653;29;20336;-60
2024/03/29 08:10:50;;;;;;;7.82;6.47;;;;;;;;;;6100357;29;20295;-59
2024/03/29 08:13:53;;;;;;;8.05;6.28;;;;;;;;;;6112592;28;20476;-60
2024/03/29 08:17:02;;;;;;;7.78;6.85;;;;;;;;;;6114153;29;20292;-59
2024/03/29 08:20:06;;;;;;;7.35;6.53;;;;;;;;;;6113467;29;20296;-59
2024/03/29 08:23:09;;;;;;;7.72;6.35;;;;;;;;;;6113913;28;20607;-60
2024/03/29 08:26:12;;;;;;;6.93;6.03;;;;;;;;;;6097947;29;20307;-59
2024/03/29 08:29:14;;;;;;;9.13;6.45;;;;;;;;;;6113138;29;20311;-60
2024/03/29 08:32:19;;;;;;;8.55;6.45;;;;;;;;;;6113666;28;20291;-60
2024/03/29 08:35:22;;;;;;;6.60;5.78;;;;;;;;;;6110939;29;20478;-61
2024/03/29 08:38:25;;;;;;;6.60;5.97;;;;;;;;;;6111560;28;20567;-60
2024/03/29 08:41:27;;;;;;;6.00;5.50;;;;;;;;;;6113633;29;20287;-60
2024/03/29 08:44:30;;;;;;;5.85;5.15;;;;;;;;;;6114342;29;20291;-60
2024/03/29 08:47:35;;;;;;;7.35;5.50;;;;;;;;;;6113788;29;20576;-59
2024/03/29 08:50:38;;;;;;;6.60;5.35;;;;;;;;;;6113304;29;20291;-61
2024/03/29 08:53:40;;;;;;;6.68;5.57;;;;;;;;;;6106214;29;20311;-60
2024/03/29 08:56:43;;;;;;;6.03;5.50;;;;;;;;;;6111698;29;20299;-59
2024/03/29 08:59:46;;;;;;;7.55;5.50;;;;;;;;;;6097013;29;20291;-61
2024/03/29 09:02:51;;;;;;;5.65;5.25;;;;;;;;;;6113258;29;20296;-61
2024/03/29 09:05:53;;;;;;;7.38;6.13;;;;;;;;;;6106627;29;20296;-60
2024/03/29 09:08:56;;;;;;;7.00;5.53;;;;;;;;;;6088062;29;20293;-61
2024/03/29 09:12:00;;;;;;;5.70;5.20;;;;;;;;;;6108242;28;20295;-60
2024/03/29 09:15:02;;;;;;;7.38;5.05;;;;;;;;;;6096487;29;20303;-61
2024/03/29 09:18:16;;;;;;;8.45;6.00;;;;;;;;;;6111913;28;20301;-61
2024/03/29 09:21:20;;;;;;;6.88;6.18;;;;;;;;;;6112525;29;20312;-60
2024/03/29 09:24:22;;;;;;;6.20;5.22;;;;;;;;;;6112291;29;20608;-60
2024/03/29 09:27:26;;;;;;;6.20;5.55;;;;;;;;;;6112304;29;20291;-60
2024/03/29 09:30:29;;;;;;;6.95;5.55;;;;;;;;;;6103064;29;20224;-60
2024/03/29 09:33:33;;;;;;;5.20;4.80;;;;;;;;;;6110613;29;20296;-62
2024/03/29 09:36:36;;;;;;;5.38;4.90;;;;;;;;;;6112902;29;20291;-60
2024/03/29 09:39:39;;;;;;;5.63;5.07;;;;;;;;;;6110417;29;20307;-60
2024/03/29 09:42:42;;;;;;;8.02;4.43;;;;;;;;;;6113358;29;20330;-62
2024/03/29 09:45:45;;;;;;;4.85;4.45;;;;;;;;;;6102460;29;20307;-60
2024/03/29 09:48:50;;;;;;;4.90;4.50;;;;;;;;;;6111992;29;20299;-60
2024/03/29 09:51:53;;;;;;;5.28;4.80;;;;;;;;;;6112299;29;20368;-60
2024/03/29 09:54:57;;;;;;;4.97;4.57;;;;;;;;;;6110726;29;20307;-60
2024/03/29 09:58:00;;;;;;;5.55;4.47;;;;;;;;;;6104280;28;20378;-61
2024/03/29 10:01:04;;;;;;;4.22;4.03;;;;;;;;;;6112540;29;20295;-60
2024/03/29 10:04:08;;;;;;;5.03;4.55;;;;;;;;;;6111529;29;20307;-61
2024/03/29 10:07:12;;;;;;;4.43;4.10;;;;;;;;;;6112177;29;20299;-60
2024/03/29 10:10:15;;;;;;;5.10;4.80;;;;;;;;;;6106154;29;20296;-61
2024/03/29 10:13:18;;;;;;;5.32;4.55;;;;;;;;;;6088569;29;20317;-61
2024/03/29 10:16:24;;;;;;;4.95;4.57;;;;;;;;;;6088425;29;20300;-61
2024/03/29 10:19:28;;;;;;;4.70;4.30;;;;;;;;;;6087297;29;20292;-61
2024/03/29 10:22:31;;;;;;;6.07;4.43;;;;;;;;;;6087984;29;20580;-60
2024/03/29 10:25:34;;;;;;;6.10;4.60;;;;;;;;;;6086901;29;20386;-61
2024/03/29 10:28:37;;;;;;;5.28;4.53;;;;;;;;;;6087965;29;20288;-61
2024/03/29 10:31:40;;;;;;;7.20;4.55;;;;;;;;;;6088237;29;20292;-61
2024/03/29 10:34:44;;;;;;;5.72;4.45;;;;;;;;;;6087843;29;20354;-60
2024/03/29 10:37:47;;;;;;;5.00;4.50;;;;;;;;;;6088150;29;20296;-59
2024/03/29 10:40:50;;;;;;;4.90;4.50;;;;;;;;;;6087468;29;20300;-61
2024/03/29 10:43:56;;;;;;;5.97;5.47;;;;;;;;;;6091167;29;20304;-61
2024/03/29 10:47:00;;;;;;;5.03;4.53;;;;;;;;;;6091711;29;20300;-60
2024/03/29 10:50:06;;;;;;;7.20;4.47;;;;;;;;;;6092154;29;20362;-61
2024/03/29 10:53:11;;;;;;;5.53;4.88;;;;;;;;;;6091714;29;20392;-60
2024/03/29 10:56:16;;;;;;;7.00;5.30;;;;;;;;;;6092364;29;20316;-60
2024/03/29 10:59:22;;;;;;;6.15;4.90;;;;;;;;;;6091169;29;20296;-61
2024/03/29 11:02:35;;;;;;;4.80;4.60;;;;;;;;;;6092164;29;20289;-61
2024/03/29 11:05:39;;;;;;;5.20;4.90;;;;;;;;;;6095406;29;20292;-60
2024/03/29 11:08:45;;;;;;;5.15;4.68;;;;;;;;;;6114246;29;20332;-61
2024/03/29 11:11:51;;;;;;;5.13;4.78;;;;;;;;;;6088079;29;20297;-61
2024/03/29 11:15:00;;;;;;;4.70;4.40;;;;;;;;;;6067887;29;20306;-60
2024/03/29 11:18:04;;;;;;;5.28;4.53;;;;;;;;;;6067895;29;20305;-61
2024/03/29 11:21:09;;;;;;;4.82;4.53;;;;;;;;;;6068546;29;20300;-60
2024/03/29 11:24:12;;;;;;;6.53;4.80;;;;;;;;;;6067041;29;20301;-60
2024/03/29 11:27:15;;;;;;;5.53;4.97;;;;;;;;;;6068446;29;20297;-61
2024/03/29 11:30:19;;;;;;;6.80;4.68;;;;;;;;;;6067191;29;20593;-60
2024/03/29 11:33:33;;;;;;;7.35;4.43;;;;;;;;;;6064127;29;20384;-61
2024/03/29 11:36:40;;;;;;;4.57;4.22;;;;;;;;;;6067921;29;20301;-61
2024/03/29 11:39:49;;;;;;;4.78;3.95;;;;;;;;;;6066398;29;20304;-60
2024/03/29 11:42:53;;;;;;;5.05;4.13;;;;;;;;;;6064965;29;20345;-60
2024/03/29 11:45:56;;;;;;;8.88;4.00;;;;;;;;;;6066550;29;20300;-60
2024/03/29 11:48:59;;;;;;;4.30;3.65;;;;;;;;;;6067537;29;20296;-60
2024/03/29 11:52:07;;;;;;;4.90;3.83;;;;;;;;;;6053731;29;20292;-61
2024/03/29 11:55:09;;;;;;;7.95;3.70;;;;;;;;;;6066307;29;20301;-61
2024/03/29 11:58:12;;;;;;;5.20;3.17;;;;;;;;;;6065874;29;20297;-60
2024/03/29 12:01:16;;;;;;;3.42;3.20;;;;;;;;;;6067166;29;20297;-60
2024/03/29 12:04:21;;;;;;;3.80;3.25;;;;;;;;;;6065398;29;20292;-60
2024/03/29 12:07:26;;;;;;;3.50;3.28;;;;;;;;;;6102233;29;20295;-61
2024/03/29 12:10:29;;;;;;;3.47;2.47;;;;;;;;;;6104163;29;20356;-60
2024/03/29 12:13:33;;;;;;;6.55;2.63;;;;;;;;;;6090707;29;20383;-60
2024/03/29 12:16:44;;;;;;;2.22;2.13;;;;;;;;;;6091050;29;20288;-60
2024/03/29 12:19:48;;;;;;;4.88;2.10;;;;;;;;;;6090132;29;20300;-60
2024/03/29 12:22:52;;;;;;;2.40;2.17;;;;;;;;;;6081935;29;20296;-60
2024/03/29 12:25:58;;;;;;;2.95;2.55;;;;;;;;;;6089737;29;20304;-60
2024/03/29 12:29:00;;;;;;;5.32;2.65;;;;;;;;;;6088782;29;20300;-60
2024/03/29 12:32:05;;;;;;;2.53;2.40;;;;;;;;;;6089896;29;20300;-61
2024/03/29 12:35:10;;;;;;;5.45;2.28;;;;;;;;;;6088935;29;20296;-59
2024/03/29 12:38:14;;;;;;;2.70;2.22;;;;;;;;;;6087657;29;20299;-61
2024/03/29 12:41:17;;;;;;;2.47;2.20;;;;;;;;;;6089142;29;20301;-61
2024/03/29 12:44:20;;;;;;;5.40;2.22;;;;;;;;;;6089160;29;20570;-60
2024/03/29 12:47:23;;;;;;;5.55;2.33;;;;;;;;;;6090067;29;20243;-59
2024/03/29 12:50:27;;;;;;;3.28;2.20;;;;;;;;;;6089708;29;20300;-61
2024/03/29 12:53:33;;;;;;;2.50;2.30;;;;;;;;;;6089005;29;20288;-61
2024/03/29 12:56:36;;;;;;;4.30;2.00;;;;;;;;;;6089602;29;20459;-61
2024/03/29 12:59:39;;;;;;;5.97;1.90;;;;;;;;;;6073003;29;20327;-61
2024/03/29 13:02:42;;;;;;;3.05;1.90;;;;;;;;;;6089767;29;20300;-60
2024/03/29 13:05:45;;;;;;;1.83;1.83;;;;;;;;;;6093666;29;20304;-64
2024/03/29 13:08:49;;;;;;;2.92;1.80;;;;;;;;;;6112300;29;20298;-61
2024/03/29 13:11:52;;;;;;;2.10;1.92;;;;;;;;;;6095206;29;20300;-59
2024/03/29 13:14:55;;;;;;;4.63;1.80;;;;;;;;;;6088865;29;20426;-60
2024/03/29 13:17:59;;;;;;;7.18;2.00;;;;;;;;;;6089054;29;20368;-61
2024/03/29 13:21:02;;;;;;;5.57;1.92;;;;;;;;;;6088846;29;20292;-60
2024/03/29 13:24:07;;;;;;;3.03;2.25;;;;;;;;;;6088314;29;20292;-60
2024/03/29 13:27:10;;;;;;;1.77;1.67;;;;;;;;;;6088822;29;20307;-61
2024/03/29 13:30:14;;;;;;;3.30;1.70;;;;;;;;;;6088362;29;20292;-61
2024/03/29 13:33:17;;;;;;;2.03;1.60;;;;;;;;;;6088823;29;20288;-60
2024/03/29 13:36:20;;;;;;;2.85;1.80;;;;;;;;;;6088812;29;20352;-60
2024/03/29 13:39:24;;;;;;;2.25;1.48;;;;;;;;;;6088434;29;20554;-60
2024/03/29 13:42:27;;;;;;;2.17;1.35;;;;;;;;;;6088806;29;20312;-60
2024/03/29 13:45:30;;;;;;;1.77;1.67;;;;;;;;;;6088327;29;20312;-61
2024/03/29 13:48:33;;;;;;;6.45;1.60;;;;;;;;;;6072715;29;20300;-60
2024/03/29 13:51:35;;;;;;;1.10;1.10;;;;;;;;;;6088840;29;20288;-60
2024/03/29 13:54:43;;;;;;;3.95;1.27;;;;;;;;;;6088832;29;20292;-61
2024/03/29 13:57:46;;;;;;;10.75;2.25;;;;;;;;;;6089043;29;20304;-60
2024/03/29 14:00:50;;;;;;;1.80;1.70;;;;;;;;;;6088773;29;20329;-60
2024/03/29 14:03:54;;;;;;;1.98;1.45;;;;;;;;;;6088372;29;20296;-59
2024/03/29 14:06:56;;;;;;;4.20;1.70;;;;;;;;;;6102930;29;20302;-59
2024/03/29 14:10:03;;;;;;;7.25;1.58;;;;;;;;;;6108147;29;20308;-59
2024/03/29 14:13:06;;;;;;;4.78;1.52;;;;;;;;;;6088002;29;20300;-60
2024/03/29 14:16:09;;;;;;;2.65;1.40;;;;;;;;;;6088986;29;20496;-60
2024/03/29 14:19:12;;;;;;;3.47;1.50;;;;;;;;;;6091357;29;20292;-61
2024/03/29 14:22:16;;;;;;;2.90;1.52;;;;;;;;;;6093468;29;20296;-60
2024/03/29 14:25:20;;;;;;;5.18;1.77;;;;;;;;;;6092901;29;20292;-61
2024/03/29 14:28:24;;;;;;;6.78;1.60;;;;;;;;;;6092654;29;20411;-59
2024/03/29 14:31:27;;;;;;;6.18;1.48;;;;;;;;;;6093025;29;20482;-61
2024/03/29 14:34:31;;;;;;;4.47;1.52;;;;;;;;;;6092342;29;20409;-61
2024/03/29 14:37:34;;;;;;;4.82;1.88;;;;;;;;;;6092893;29;20296;-59
2024/03/29 14:40:38;;;;;;;1.27;1.27;;;;;;;;;;6093964;29;20474;-59
2024/03/29 14:43:44;;;;;;;3.65;1.40;;;;;;;;;;6093913;29;20300;-60
2024/03/29 14:46:47;;;;;;;5.93;1.60;;;;;;;;;;6093882;29;20470;-60
2024/03/29 14:49:49;;;;;;;5.97;1.58;;;;;;;;;;6093246;29;20412;-61
2024/03/29 14:52:52;;;;;;;7.65;1.63;;;;;;;;;;6094071;29;20601;-61
2024/03/29 14:55:57;;;;;;;3.50;1.40;;;;;;;;;;6093585;29;20475;-60
2024/03/29 14:59:01;;;;;;;5.85;1.98;;;;;;;;;;6093929;29;20473;-59
2024/03/29 15:02:05;;;;;;;8.52;1.50;;;;;;;;;;6095018;29;20340;-61
2024/03/29 15:05:11;;;;;;;1.60;1.45;;;;;;;;;;6093982;29;20300;-61
2024/03/29 15:08:17;;;;;;;1.60;1.38;;;;;;;;;;6117036;28;20255;-61
2024/03/29 15:11:22;;;;;;;2.10;1.50;;;;;;;;;;6087364;29;20268;-59
2024/03/29 15:14:25;;;;;;;2.72;1.50;;;;;;;;;;6093386;29;20292;-59
2024/03/29 15:17:28;;;;;;;16.02;1.73;;;;;;;;;;6095994;28;20251;-62
2024/03/29 15:20:32;;;;;;;9.52;2.22;;;;;;;;;;6108234;29;20569;-61
2024/03/29 15:23:36;;;;;;;7.65;1.85;;;;;;;;;;6095692;29;20475;-61
2024/03/29 15:26:40;;;;;;;3.70;1.60;;;;;;;;;;6104934;29;20414;-61
2024/03/29 15:29:42;;;;;;;4.53;1.60;;;;;;;;;;6116266;29;20323;-61
2024/03/29 15:32:45;;;;;;;8.32;1.92;;;;;;;;;;6116646;28;20299;-61
2024/03/29 15:35:48;;;;;;;6.32;1.65;;;;;;;;;;6099412;29;20307;-60
2024/03/29 15:38:54;;;;;;;13.73;1.83;;;;;;;;;;6091994;29;20335;-60
2024/03/29 15:41:58;;;;;;;4.25;1.70;;;;;;;;;;6071161;29;20292;-61
2024/03/29 15:45:01;;;;;;;4.55;1.88;;;;;;;;;;6068579;29;20297;-60
2024/03/29 15:48:04;;;;;;;7.80;1.80;;;;;;;;;;6053200;29;20410;-61
2024/03/29 15:51:10;;;;;;;6.07;1.73;;;;;;;;;;6073254;29;20302;-61
2024/03/29 15:54:16;;;;;;;4.18;1.77;;;;;;;;;;6113606;28;20343;-61
2024/03/29 15:57:20;;;;;;;7.20;1.63;;;;;;;;;;6114171;29;20304;-61
2024/03/29 16:00:27;;;;;;;5.78;1.50;;;;;;;;;;6113668;29;20520;-61
2024/03/29 16:03:29;;;;;;;4.75;1.38;;;;;;;;;;6113939;29;20303;-60
2024/03/29 16:06:33;;;;;;;5.82;1.60;;;;;;;;;;6114157;29;20287;-60
2024/03/29 16:09:36;;;;;;;6.13;2.17;;;;;;;;;;6097561;29;20295;-60
2024/03/29 16:12:40;;;;;;;3.92;2.08;;;;;;;;;;6090891;29;20292;-60
2024/03/29 16:15:43;;;;;;;4.90;2.10;;;;;;;;;;6090193;29;20296;-61
2024/03/29 16:18:46;;;;;;;5.22;2.17;;;;;;;;;;6090042;29;20449;-60
2024/03/29 16:21:49;;;;;;;2.72;1.50;;;;;;;;;;6090468;29;20293;-60
2024/03/29 16:24:50;;;;;;;13.50;1.90;;;;;;;;;;6089977;29;20300;-61
2024/03/29 16:27:55;;;;;;;3.28;1.73;;;;;;;;;;6113268;29;20548;-60
2024/03/29 16:30:58;;;;;;;4.88;1.55;;;;;;;;;;6113681;29;20295;-60
2024/03/29 16:34:00;;;;;;;4.00;1.60;;;;;;;;;;6114177;29;20300;-61
2024/03/29 16:37:03;;;;;;;2.85;1.67;;;;;;;;;;6114454;29;20473;-59
2024/03/29 16:40:06;;;;;;;5.60;1.60;;;;;;;;;;6112775;29;20304;-61
2024/03/29 16:43:12;;;;;;;4.82;2.03;;;;;;;;;;6113344;29;20437;-61
2024/03/29 16:46:14;;;;;;;4.32;1.73;;;;;;;;;;6113495;29;20382;-62
2024/03/29 16:49:18;;;;;;;8.98;1.92;;;;;;;;;;6097703;29;20307;-61
2024/03/29 16:52:21;;;;;;;7.68;1.90;;;;;;;;;;6113729;29;20288;-61
2024/03/29 16:55:25;;;;;;;6.82;1.65;;;;;;;;;;6097119;29;20291;-61
2024/03/29 16:58:28;;;;;;;6.93;1.92;;;;;;;;;;6113003;29;20292;-61
2024/03/29 17:01:31;;;;;;;7.57;2.30;;;;;;;;;;6113388;29;20552;-61
2024/03/29 17:04:33;;;;;;;7.43;2.10;;;;;;;;;;6113094;29;20577;-61
2024/03/29 17:07:36;;;;;;;4.57;1.83;;;;;;;;;;6113466;29;20295;-60
2024/03/29 17:10:38;;;;;;;3.22;1.85;;;;;;;;;;6104055;29;20358;-60
2024/03/29 17:13:42;;;;;;;2.65;2.15;;;;;;;;;;6089656;29;20292;-60
2024/03/29 17:16:47;;;;;;;8.45;2.40;;;;;;;;;;6090015;29;20303;-61
2024/03/29 17:19:50;;;;;;;2.85;2.13;;;;;;;;;;6089398;29;20592;-62
2024/03/29 17:22:51;;;;;;;7.53;2.80;;;;;;;;;;6089729;29;20292;-60
2024/03/29 17:25:54;;;;;;;2.45;2.20;;;;;;;;;;6096862;29;20304;-61
2024/03/29 17:28:57;;;;;;;5.82;2.13;;;;;;;;;;6112489;29;20291;-60
2024/03/29 17:32:01;;;;;;;4.22;2.22;;;;;;;;;;6113050;29;20315;-60
2024/03/29 17:35:04;;;;;;;3.28;1.70;;;;;;;;;;6112024;29;20295;-60
2024/03/29 17:38:07;;;;;;;8.48;2.20;;;;;;;;;;6111916;29;20304;-59
2024/03/29 17:41:09;;;;;;;7.43;2.30;;;;;;;;;;6112902;29;20295;-61
2024/03/29 17:44:15;;;;;;;4.03;2.83;;;;;;;;;;6112188;29;20299;-62
2024/03/29 17:47:18;;;;;;;24.85;6.90;;;;;;;;;;6112230;28;20292;-61
2024/03/29 17:50:20;;;;;;;6.07;3.00;;;;;;;;;;6112155;29;20303;-61
2024/03/29 17:53:22;;;;;;;6.72;3.10;;;;;;;;;;6110859;28;20299;-61
2024/03/29 17:56:25;;;;;;;9.52;2.42;;;;;;;;;;6096291;29;20308;-61
2024/03/29 17:59:29;;;;;;;9.70;3.97;;;;;;;;;;6111821;29;20485;-62
2024/03/29 18:02:32;;;;;;;2.25;1.83;;;;;;;;;;6112420;29;20292;-62
2024/03/29 18:05:34;;;;;;;4.72;2.40;;;;;;;;;;6111865;29;20291;-60
2024/03/29 18:08:37;;;;;;;7.25;2.03;;;;;;;;;;6111679;28;20287;-59
2024/03/29 18:11:38;;;;;;;5.18;2.17;;;;;;;;;;6095881;29;20465;-61
2024/03/29 18:14:43;;;;;;;6.13;2.33;;;;;;;;;;6088615;29;20312;-62
2024/03/29 18:17:45;;;;;;;7.05;1.98;;;;;;;;;;6088765;29;20304;-61
2024/03/29 18:20:47;;;;;;;5.00;2.20;;;;;;;;;;6088220;29;20592;-62
2024/03/29 18:23:50;;;;;;;5.63;2.45;;;;;;;;;;6073353;29;20541;-61
2024/03/29 18:26:52;;;;;;;5.30;2.20;;;;;;;;;;6103753;29;20343;-61
2024/03/29 18:29:56;;;;;;;5.25;2.03;;;;;;;;;;6111638;29;20246;-61
2024/03/29 18:32:59;;;;;;;6.68;2.40;;;;;;;;;;6111854;28;20419;-60
2024/03/29 18:36:01;;;;;;;3.35;2.22;;;;;;;;;;6112144;29;20410;-61
2024/03/29 18:39:04;;;;;;;7.25;2.50;;;;;;;;;;6111632;29;20299;-61
2024/03/29 18:42:06;;;;;;;2.30;2.00;;;;;;;;;;6112175;29;20295;-61
2024/03/29 18:45:11;;;;;;;5.65;3.13;;;;;;;;;;6111725;29;20568;-60
2024/03/29 18:48:13;;;;;;;3.63;3.30;;;;;;;;;;6111663;28;20300;-62
2024/03/29 18:51:16;;;;;;;6.13;4.80;;;;;;;;;;6111982;29;20299;-61
2024/03/29 18:54:19;;;;;;;5.68;3.42;;;;;;;;;;6111624;29;20295;-60
2024/03/29 18:57:22;;;;;;;5.93;2.70;;;;;;;;;;6111884;29;20296;-59
2024/03/29 19:00:25;;;;;;;6.00;2.63;;;;;;;;;;6111649;29;20300;-61
2024/03/29 19:03:28;;;;;;;10.25;2.97;;;;;;;;;;6111717;29;20288;-60
2024/03/29 19:06:31;;;;;;;4.93;2.60;;;;;;;;;;6115575;29;20442;-61
2024/03/29 19:09:34;;;;;;;2.95;2.28;;;;;;;;;;6115350;29;20307;-60
2024/03/29 19:12:37;;;;;;;3.85;2.88;;;;;;;;;;6092478;29;20296;-62
2024/03/29 19:15:40;;;;;;;7.82;2.80;;;;;;;;;;6091906;29;20300;-60
2024/03/29 19:18:43;;;;;;;8.35;2.92;;;;;;;;;;6091784;29;20300;-59
2024/03/29 19:21:47;;;;;;;3.72;3.00;;;;;;;;;;6092760;29;20300;-59
2024/03/29 19:24:52;;;;;;;5.13;3.13;;;;;;;;;;6091807;29;20299;-60
2024/03/29 19:27:54;;;;;;;9.70;3.10;;;;;;;;;;6115717;29;20295;-59
2024/03/29 19:30:59;;;;;;;5.82;2.63;;;;;;;;;;6114932;29;20624;-59
2024/03/29 19:34:02;;;;;;;6.45;3.03;;;;;;;;;;6114954;29;20303;-61
2024/03/29 19:37:04;;;;;;;2.97;2.85;;;;;;;;;;6115657;29;20295;-61
2024/03/29 19:40:07;;;;;;;4.40;4.07;;;;;;;;;;6115207;29;20299;-60
2024/03/29 19:43:10;;;;;;;4.20;2.97;;;;;;;;;;6114785;29;20300;-61
2024/03/29 19:46:14;;;;;;;10.68;3.30;;;;;;;;;;6112792;29;20304;-61
2024/03/29 19:49:19;;;;;;;9.38;3.97;;;;;;;;;;6114433;29;20295;-61
2024/03/29 19:52:21;;;;;;;3.60;3.30;;;;;;;;;;6098787;29;20292;-61
2024/03/29 19:55:23;;;;;;;5.43;3.90;;;;;;;;;;6114305;29;20291;-61
2024/03/29 19:58:27;;;;;;;6.28;3.70;;;;;;;;;;6113460;28;20307;-61